KPGD/PGD METAR and TAF weather

Enter ICAO airport designator
Station Type Date Time Source
KPGD METAR 2020/07/02 17:53 UTC NOAA

KPGD 021753Z 24011KT 10SM CLR 34/22 A3000 RMK AO2 SLP158 T03390217 10339 20267 58003


Station Type Date Time Source
KPGD Decoded METAR 2020/07/02 17:53 UTC NOAA

PUNTA GORDA CHARLOTTE COUNTY, FL, United States (KPGD) 26-55N 82-00W 7M
Jul 02, 2020 - 01:53 PM EDT / 2020.07.02 1753 UTC
Wind: from the WSW (240 degrees) at 13 MPH (11 KT):0
Visibility: 10 mile(s):0
Sky conditions: clear
Temperature: 93.0 F (33.9 C)
Heat index: 100.0 F (37.8 C):1
Dew Point: 71.1 F (21.7 C)
Relative Humidity: 49%
Pressure (altimeter): 30 in. Hg (1015 hPa)
Pressure tendency: 0.01 inches (0.3 hPa) lower than three hours ago
ob: KPGD 021753Z 24011KT 10SM CLR 34/22 A3000 RMK AO2 SLP158 T03390217 10339 20267 58003
cycle: 18

Station Type Date Time Source
KPGD TAF 2020/07/02 18:24 UTC NOAA

TAF KPGD 021721Z 0218/0318 24010KT P6SM SCT030 BKN200
FM030300 VRB03KT P6SM FEW040 SCT200
FM031500 27008KT P6SM SCT030 SCT200
FM031700 26010KT P6SM SCT030 BKN200

Example: see airport list